sensor_id;sensor_type;location;lat;lon;timestamp;P1;durP1;ratioP1;P2;durP2;ratioP2
3443;SDS011;1736;52.068;6.968;2023-05-07T00:00:16;22.10;;;16.23;;
3443;SDS011;1736;52.068;6.968;2023-05-07T00:02:45;21.20;;;16.03;;
3443;SDS011;1736;52.068;6.968;2023-05-07T00:05:12;17.87;;;15.97;;
3443;SDS011;1736;52.068;6.968;2023-05-07T00:07:39;20.33;;;16.67;;
3443;SDS011;1736;52.068;6.968;2023-05-07T00:10:06;18.23;;;16.20;;
3443;SDS011;1736;52.068;6.968;2023-05-07T00:12:33;18.30;;;16.30;;
3443;SDS011;1736;52.068;6.968;2023-05-07T00:15:00;21.33;;;17.00;;
3443;SDS011;1736;52.068;6.968;2023-05-07T00:17:27;19.67;;;17.57;;
3443;SDS011;1736;52.068;6.968;2023-05-07T00:19:55;20.23;;;16.67;;
3443;SDS011;1736;52.068;6.968;2023-05-07T00:22:22;19.53;;;16.20;;
3443;SDS011;1736;52.068;6.968;2023-05-07T00:24:48;21.30;;;16.77;;
3443;SDS011;1736;52.068;6.968;2023-05-07T00:27:15;23.70;;;16.83;;
3443;SDS011;1736;52.068;6.968;2023-05-07T00:29:42;21.30;;;16.73;;
3443;SDS011;1736;52.068;6.968;2023-05-07T00:32:15;23.90;;;18.23;;
3443;SDS011;1736;52.068;6.968;2023-05-07T00:34:42;20.17;;;17.50;;
3443;SDS011;1736;52.068;6.968;2023-05-07T00:37:17;22.47;;;18.10;;
3443;SDS011;1736;52.068;6.968;2023-05-07T00:39:44;20.90;;;17.20;;
3443;SDS011;1736;52.068;6.968;2023-05-07T00:42:10;26.03;;;19.93;;
3443;SDS011;1736;52.068;6.968;2023-05-07T00:44:37;23.23;;;19.07;;
3443;SDS011;1736;52.068;6.968;2023-05-07T00:47:03;25.63;;;19.93;;
3443;SDS011;1736;52.068;6.968;2023-05-07T00:49:34;23.40;;;19.20;;
3443;SDS011;1736;52.068;6.968;2023-05-07T00:52:05;24.03;;;19.53;;
3443;SDS011;1736;52.068;6.968;2023-05-07T00:54:40;23.83;;;19.70;;
3443;SDS011;1736;52.068;6.968;2023-05-07T00:57:06;25.97;;;21.00;;
3443;SDS011;1736;52.068;6.968;2023-05-07T00:59:36;25.23;;;20.93;;
3443;SDS011;1736;52.068;6.968;2023-05-07T01:02:02;25.40;;;21.00;;
3443;SDS011;1736;52.068;6.968;2023-05-07T01:04:29;25.77;;;20.80;;
3443;SDS011;1736;52.068;6.968;2023-05-07T01:06:56;26.97;;;21.43;;
3443;SDS011;1736;52.068;6.968;2023-05-07T01:09:24;27.70;;;20.93;;
3443;SDS011;1736;52.068;6.968;2023-05-07T01:11:53;28.53;;;21.47;;
3443;SDS011;1736;52.068;6.968;2023-05-07T01:14:22;27.70;;;22.17;;
3443;SDS011;1736;52.068;6.968;2023-05-07T01:16:50;29.03;;;22.63;;
3443;SDS011;1736;52.068;6.968;2023-05-07T01:19:18;28.53;;;22.10;;
3443;SDS011;1736;52.068;6.968;2023-05-07T01:21:47;27.10;;;21.90;;
3443;SDS011;1736;52.068;6.968;2023-05-07T01:24:16;31.50;;;23.43;;
3443;SDS011;1736;52.068;6.968;2023-05-07T01:26:42;30.37;;;22.83;;
3443;SDS011;1736;52.068;6.968;2023-05-07T01:29:10;26.57;;;21.90;;
3443;SDS011;1736;52.068;6.968;2023-05-07T01:31:36;27.53;;;22.00;;
3443;SDS011;1736;52.068;6.968;2023-05-07T01:34:04;28.10;;;22.17;;
3443;SDS011;1736;52.068;6.968;2023-05-07T01:36:33;26.87;;;21.83;;
3443;SDS011;1736;52.068;6.968;2023-05-07T01:39:00;30.13;;;23.07;;
3443;SDS011;1736;52.068;6.968;2023-05-07T01:41:35;27.43;;;22.57;;
3443;SDS011;1736;52.068;6.968;2023-05-07T01:44:03;27.80;;;22.40;;
3443;SDS011;1736;52.068;6.968;2023-05-07T01:46:38;32.37;;;22.60;;
3443;SDS011;1736;52.068;6.968;2023-05-07T01:49:05;29.27;;;22.20;;
3443;SDS011;1736;52.068;6.968;2023-05-07T01:51:31;29.20;;;24.07;;
3443;SDS011;1736;52.068;6.968;2023-05-07T01:53:59;29.90;;;23.60;;
3443;SDS011;1736;52.068;6.968;2023-05-07T01:56:26;29.53;;;23.60;;
3443;SDS011;1736;52.068;6.968;2023-05-07T01:58:54;33.57;;;24.50;;
3443;SDS011;1736;52.068;6.968;2023-05-07T02:01:20;30.87;;;23.47;;
3443;SDS011;1736;52.068;6.968;2023-05-07T02:03:47;32.70;;;25.33;;
3443;SDS011;1736;52.068;6.968;2023-05-07T02:06:14;29.10;;;23.50;;
3443;SDS011;1736;52.068;6.968;2023-05-07T02:08:40;31.63;;;23.67;;
3443;SDS011;1736;52.068;6.968;2023-05-07T02:11:07;32.83;;;25.27;;
3443;SDS011;1736;52.068;6.968;2023-05-07T02:13:33;27.40;;;22.93;;
3443;SDS011;1736;52.068;6.968;2023-05-07T02:16:02;31.83;;;24.63;;
3443;SDS011;1736;52.068;6.968;2023-05-07T02:18:29;29.93;;;23.50;;
3443;SDS011;1736;52.068;6.968;2023-05-07T02:20:56;29.67;;;23.17;;
3443;SDS011;1736;52.068;6.968;2023-05-07T02:23:23;31.50;;;23.40;;
3443;SDS011;1736;52.068;6.968;2023-05-07T02:25:49;30.17;;;23.30;;
3443;SDS011;1736;52.068;6.968;2023-05-07T02:28:17;30.13;;;22.70;;
3443;SDS011;1736;52.068;6.968;2023-05-07T02:30:43;30.40;;;23.90;;
3443;SDS011;1736;52.068;6.968;2023-05-07T02:33:11;31.80;;;23.70;;
3443;SDS011;1736;52.068;6.968;2023-05-07T02:35:38;32.00;;;22.93;;
3443;SDS011;1736;52.068;6.968;2023-05-07T02:38:05;28.23;;;22.43;;
3443;SDS011;1736;52.068;6.968;2023-05-07T02:40:31;28.97;;;22.03;;
3443;SDS011;1736;52.068;6.968;2023-05-07T02:42:59;28.13;;;21.10;;
3443;SDS011;1736;52.068;6.968;2023-05-07T02:45:26;31.13;;;22.50;;
3443;SDS011;1736;52.068;6.968;2023-05-07T02:47:52;30.17;;;22.23;;
3443;SDS011;1736;52.068;6.968;2023-05-07T02:50:21;31.53;;;22.13;;
3443;SDS011;1736;52.068;6.968;2023-05-07T02:52:47;27.27;;;20.10;;
3443;SDS011;1736;52.068;6.968;2023-05-07T02:55:14;30.13;;;20.30;;
3443;SDS011;1736;52.068;6.968;2023-05-07T02:57:41;29.40;;;20.37;;
3443;SDS011;1736;52.068;6.968;2023-05-07T03:00:11;30.60;;;20.07;;
3443;SDS011;1736;52.068;6.968;2023-05-07T03:02:38;27.77;;;20.00;;
3443;SDS011;1736;52.068;6.968;2023-05-07T03:05:05;30.73;;;20.63;;
3443;SDS011;1736;52.068;6.968;2023-05-07T03:07:34;23.97;;;18.17;;
3443;SDS011;1736;52.068;6.968;2023-05-07T03:10:01;31.20;;;20.07;;
3443;SDS011;1736;52.068;6.968;2023-05-07T03:12:27;33.03;;;19.07;;
3443;SDS011;1736;52.068;6.968;2023-05-07T03:14:54;31.57;;;19.43;;
3443;SDS011;1736;52.068;6.968;2023-05-07T03:17:21;25.90;;;18.33;;
3443;SDS011;1736;52.068;6.968;2023-05-07T03:19:47;27.20;;;18.80;;
3443;SDS011;1736;52.068;6.968;2023-05-07T03:22:14;28.53;;;18.63;;
3443;SDS011;1736;52.068;6.968;2023-05-07T03:24:42;26.70;;;17.50;;
3443;SDS011;1736;52.068;6.968;2023-05-07T03:27:09;29.93;;;19.30;;
3443;SDS011;1736;52.068;6.968;2023-05-07T03:29:35;29.20;;;18.43;;
3443;SDS011;1736;52.068;6.968;2023-05-07T03:32:02;27.77;;;19.00;;
3443;SDS011;1736;52.068;6.968;2023-05-07T03:34:28;27.43;;;19.13;;
3443;SDS011;1736;52.068;6.968;2023-05-07T03:36:55;27.30;;;18.37;;
3443;SDS011;1736;52.068;6.968;2023-05-07T03:39:21;36.40;;;18.87;;
3443;SDS011;1736;52.068;6.968;2023-05-07T03:41:49;30.40;;;18.90;;
3443;SDS011;1736;52.068;6.968;2023-05-07T03:44:16;29.60;;;18.40;;
3443;SDS011;1736;52.068;6.968;2023-05-07T03:46:42;31.73;;;19.07;;
3443;SDS011;1736;52.068;6.968;2023-05-07T03:49:09;30.40;;;18.87;;
3443;SDS011;1736;52.068;6.968;2023-05-07T03:51:35;29.53;;;18.50;;
3443;SDS011;1736;52.068;6.968;2023-05-07T03:54:02;29.43;;;21.13;;
3443;SDS011;1736;52.068;6.968;2023-05-07T03:56:28;30.20;;;19.37;;
3443;SDS011;1736;52.068;6.968;2023-05-07T03:58:57;32.93;;;21.57;;
3443;SDS011;1736;52.068;6.968;2023-05-07T04:01:24;30.20;;;19.10;;
3443;SDS011;1736;52.068;6.968;2023-05-07T04:03:50;34.17;;;19.67;;
3443;SDS011;1736;52.068;6.968;2023-05-07T04:06:17;33.20;;;21.17;;
3443;SDS011;1736;52.068;6.968;2023-05-07T04:08:44;34.30;;;21.70;;
3443;SDS011;1736;52.068;6.968;2023-05-07T04:11:10;29.53;;;20.17;;
3443;SDS011;1736;52.068;6.968;2023-05-07T04:13:37;31.83;;;20.07;;
3443;SDS011;1736;52.068;6.968;2023-05-07T04:16:05;31.00;;;19.87;;
3443;SDS011;1736;52.068;6.968;2023-05-07T04:18:32;34.37;;;20.53;;
3443;SDS011;1736;52.068;6.968;2023-05-07T04:20:59;33.70;;;20.53;;
3443;SDS011;1736;52.068;6.968;2023-05-07T04:23:25;32.27;;;20.10;;
3443;SDS011;1736;52.068;6.968;2023-05-07T04:25:52;34.00;;;21.10;;
3443;SDS011;1736;52.068;6.968;2023-05-07T04:28:19;32.97;;;19.90;;
3443;SDS011;1736;52.068;6.968;2023-05-07T04:30:46;36.37;;;21.83;;
3443;SDS011;1736;52.068;6.968;2023-05-07T04:33:14;37.13;;;21.87;;
3443;SDS011;1736;52.068;6.968;2023-05-07T04:35:41;33.30;;;21.37;;
3443;SDS011;1736;52.068;6.968;2023-05-07T04:38:08;32.63;;;21.50;;
3443;SDS011;1736;52.068;6.968;2023-05-07T04:40:35;34.87;;;21.97;;
3443;SDS011;1736;52.068;6.968;2023-05-07T04:43:02;34.00;;;22.30;;
3443;SDS011;1736;52.068;6.968;2023-05-07T04:45:28;32.97;;;20.90;;
3443;SDS011;1736;52.068;6.968;2023-05-07T04:47:55;33.77;;;22.20;;
3443;SDS011;1736;52.068;6.968;2023-05-07T04:50:22;36.03;;;21.67;;
3443;SDS011;1736;52.068;6.968;2023-05-07T04:52:50;32.37;;;21.50;;
3443;SDS011;1736;52.068;6.968;2023-05-07T04:55:16;33.33;;;21.33;;
3443;SDS011;1736;52.068;6.968;2023-05-07T04:57:43;29.53;;;20.17;;
3443;SDS011;1736;52.068;6.968;2023-05-07T05:00:10;32.97;;;20.83;;
3443;SDS011;1736;52.068;6.968;2023-05-07T05:02:39;30.93;;;21.23;;
3443;SDS011;1736;52.068;6.968;2023-05-07T05:05:06;29.60;;;20.70;;
3443;SDS011;1736;52.068;6.968;2023-05-07T05:07:34;34.23;;;20.27;;
3443;SDS011;1736;52.068;6.968;2023-05-07T05:10:01;30.43;;;20.90;;
3443;SDS011;1736;52.068;6.968;2023-05-07T05:12:28;34.27;;;20.67;;
3443;SDS011;1736;52.068;6.968;2023-05-07T05:14:55;31.73;;;20.10;;
3443;SDS011;1736;52.068;6.968;2023-05-07T05:17:21;28.10;;;20.30;;
3443;SDS011;1736;52.068;6.968;2023-05-07T05:19:48;32.53;;;20.17;;
3443;SDS011;1736;52.068;6.968;2023-05-07T05:22:15;32.80;;;20.70;;
3443;SDS011;1736;52.068;6.968;2023-05-07T05:24:43;26.67;;;18.70;;
3443;SDS011;1736;52.068;6.968;2023-05-07T05:27:10;26.03;;;17.67;;
3443;SDS011;1736;52.068;6.968;2023-05-07T05:29:37;31.17;;;19.13;;
3443;SDS011;1736;52.068;6.968;2023-05-07T05:32:03;28.77;;;19.50;;
3443;SDS011;1736;52.068;6.968;2023-05-07T05:34:30;31.93;;;19.70;;
3443;SDS011;1736;52.068;6.968;2023-05-07T05:36:58;29.30;;;19.60;;
3443;SDS011;1736;52.068;6.968;2023-05-07T05:39:25;26.80;;;18.83;;
3443;SDS011;1736;52.068;6.968;2023-05-07T05:41:53;30.03;;;19.73;;
3443;SDS011;1736;52.068;6.968;2023-05-07T05:44:19;30.00;;;20.63;;
3443;SDS011;1736;52.068;6.968;2023-05-07T05:46:46;28.60;;;19.43;;
3443;SDS011;1736;52.068;6.968;2023-05-07T05:49:14;26.37;;;18.77;;
3443;SDS011;1736;52.068;6.968;2023-05-07T05:51:41;24.87;;;18.10;;
3443;SDS011;1736;52.068;6.968;2023-05-07T05:54:07;26.43;;;18.10;;
3443;SDS011;1736;52.068;6.968;2023-05-07T05:56:34;30.23;;;19.87;;
3443;SDS011;1736;52.068;6.968;2023-05-07T05:59:02;28.67;;;18.33;;
3443;SDS011;1736;52.068;6.968;2023-05-07T06:01:28;34.33;;;20.07;;
3443;SDS011;1736;52.068;6.968;2023-05-07T06:03:55;27.87;;;18.53;;
3443;SDS011;1736;52.068;6.968;2023-05-07T06:06:22;28.80;;;19.20;;
3443;SDS011;1736;52.068;6.968;2023-05-07T06:08:49;31.47;;;19.70;;
3443;SDS011;1736;52.068;6.968;2023-05-07T06:11:15;28.07;;;20.23;;
3443;SDS011;1736;52.068;6.968;2023-05-07T06:13:42;29.90;;;19.70;;
3443;SDS011;1736;52.068;6.968;2023-05-07T06:16:10;25.40;;;17.90;;
3443;SDS011;1736;52.068;6.968;2023-05-07T06:18:36;24.80;;;17.53;;
3443;SDS011;1736;52.068;6.968;2023-05-07T06:21:03;29.70;;;17.30;;
3443;SDS011;1736;52.068;6.968;2023-05-07T06:23:30;25.57;;;17.77;;
3443;SDS011;1736;52.068;6.968;2023-05-07T06:25:56;25.67;;;17.93;;
3443;SDS011;1736;52.068;6.968;2023-05-07T06:28:23;26.50;;;17.83;;
3443;SDS011;1736;52.068;6.968;2023-05-07T06:30:49;28.70;;;18.60;;
3443;SDS011;1736;52.068;6.968;2023-05-07T06:33:17;29.70;;;18.53;;
3443;SDS011;1736;52.068;6.968;2023-05-07T06:35:44;26.30;;;17.23;;
3443;SDS011;1736;52.068;6.968;2023-05-07T06:38:11;20.90;;;16.17;;
3443;SDS011;1736;52.068;6.968;2023-05-07T06:40:37;25.17;;;17.80;;
3443;SDS011;1736;52.068;6.968;2023-05-07T06:43:04;23.47;;;17.23;;
3443;SDS011;1736;52.068;6.968;2023-05-07T06:45:30;26.70;;;17.40;;
3443;SDS011;1736;52.068;6.968;2023-05-07T06:47:57;25.60;;;15.93;;
3443;SDS011;1736;52.068;6.968;2023-05-07T06:50:25;26.97;;;16.93;;
3443;SDS011;1736;52.068;6.968;2023-05-07T06:52:52;21.70;;;15.70;;
3443;SDS011;1736;52.068;6.968;2023-05-07T06:55:18;25.30;;;18.17;;
3443;SDS011;1736;52.068;6.968;2023-05-07T06:57:45;24.13;;;16.93;;
3443;SDS011;1736;52.068;6.968;2023-05-07T07:00:14;22.57;;;16.63;;
3443;SDS011;1736;52.068;6.968;2023-05-07T07:02:41;24.97;;;16.30;;
3443;SDS011;1736;52.068;6.968;2023-05-07T07:05:08;23.97;;;16.93;;
3443;SDS011;1736;52.068;6.968;2023-05-07T07:07:36;25.67;;;18.00;;
3443;SDS011;1736;52.068;6.968;2023-05-07T07:10:03;25.33;;;16.60;;
3443;SDS011;1736;52.068;6.968;2023-05-07T07:12:30;24.60;;;16.60;;
3443;SDS011;1736;52.068;6.968;2023-05-07T07:14:56;21.63;;;16.50;;
3443;SDS011;1736;52.068;6.968;2023-05-07T07:17:23;26.80;;;18.33;;
3443;SDS011;1736;52.068;6.968;2023-05-07T07:19:49;27.50;;;16.63;;
3443;SDS011;1736;52.068;6.968;2023-05-07T07:22:16;21.37;;;16.10;;
3443;SDS011;1736;52.068;6.968;2023-05-07T07:24:44;23.57;;;16.50;;
3443;SDS011;1736;52.068;6.968;2023-05-07T07:27:10;21.03;;;15.30;;
3443;SDS011;1736;52.068;6.968;2023-05-07T07:29:37;21.40;;;16.13;;
3443;SDS011;1736;52.068;6.968;2023-05-07T07:32:03;25.87;;;17.20;;
3443;SDS011;1736;52.068;6.968;2023-05-07T07:34:31;23.10;;;16.20;;
3443;SDS011;1736;52.068;6.968;2023-05-07T07:36:57;22.57;;;16.30;;
3443;SDS011;1736;52.068;6.968;2023-05-07T07:39:30;25.27;;;16.20;;
3443;SDS011;1736;52.068;6.968;2023-05-07T07:41:58;23.27;;;16.40;;
3443;SDS011;1736;52.068;6.968;2023-05-07T07:44:25;23.50;;;15.90;;
3443;SDS011;1736;52.068;6.968;2023-05-07T07:46:51;22.23;;;15.80;;
3443;SDS011;1736;52.068;6.968;2023-05-07T07:49:18;26.07;;;17.00;;
3443;SDS011;1736;52.068;6.968;2023-05-07T07:51:44;25.63;;;16.43;;
3443;SDS011;1736;52.068;6.968;2023-05-07T07:54:11;22.20;;;15.80;;
3443;SDS011;1736;52.068;6.968;2023-05-07T07:56:38;25.73;;;15.97;;
3443;SDS011;1736;52.068;6.968;2023-05-07T07:59:05;21.10;;;15.67;;
3443;SDS011;1736;52.068;6.968;2023-05-07T08:01:32;22.17;;;16.20;;
3443;SDS011;1736;52.068;6.968;2023-05-07T08:03:58;22.80;;;16.53;;
3443;SDS011;1736;52.068;6.968;2023-05-07T08:06:25;28.13;;;15.63;;
3443;SDS011;1736;52.068;6.968;2023-05-07T08:08:52;22.70;;;16.63;;
3443;SDS011;1736;52.068;6.968;2023-05-07T08:11:18;21.40;;;15.57;;
3443;SDS011;1736;52.068;6.968;2023-05-07T08:13:46;20.90;;;16.17;;
3443;SDS011;1736;52.068;6.968;2023-05-07T08:16:14;20.80;;;15.60;;
3443;SDS011;1736;52.068;6.968;2023-05-07T08:18:40;21.60;;;15.17;;
3443;SDS011;1736;52.068;6.968;2023-05-07T08:21:07;22.90;;;17.03;;
3443;SDS011;1736;52.068;6.968;2023-05-07T08:23:34;22.33;;;14.00;;
3443;SDS011;1736;52.068;6.968;2023-05-07T08:26:00;22.10;;;15.43;;
3443;SDS011;1736;52.068;6.968;2023-05-07T08:28:27;20.43;;;15.40;;
3443;SDS011;1736;52.068;6.968;2023-05-07T08:30:53;21.30;;;16.33;;
3443;SDS011;1736;52.068;6.968;2023-05-07T08:33:22;21.33;;;15.83;;
3443;SDS011;1736;52.068;6.968;2023-05-07T08:35:49;21.03;;;15.80;;
3443;SDS011;1736;52.068;6.968;2023-05-07T08:38:16;23.07;;;17.07;;
3443;SDS011;1736;52.068;6.968;2023-05-07T08:40:42;24.47;;;16.07;;
3443;SDS011;1736;52.068;6.968;2023-05-07T08:43:08;26.53;;;16.03;;
3443;SDS011;1736;52.068;6.968;2023-05-07T08:45:40;18.47;;;14.17;;
3443;SDS011;1736;52.068;6.968;2023-05-07T08:48:08;23.10;;;17.13;;
3443;SDS011;1736;52.068;6.968;2023-05-07T08:50:37;21.27;;;15.90;;
3443;SDS011;1736;52.068;6.968;2023-05-07T08:53:05;25.87;;;16.80;;
3443;SDS011;1736;52.068;6.968;2023-05-07T08:55:31;22.93;;;15.80;;
3443;SDS011;1736;52.068;6.968;2023-05-07T08:57:58;23.23;;;16.10;;
3443;SDS011;1736;52.068;6.968;2023-05-07T09:00:25;20.10;;;15.43;;
3443;SDS011;1736;52.068;6.968;2023-05-07T09:02:52;22.13;;;16.23;;
3443;SDS011;1736;52.068;6.968;2023-05-07T09:05:19;19.60;;;15.10;;
3443;SDS011;1736;52.068;6.968;2023-05-07T09:07:47;20.50;;;15.63;;
3443;SDS011;1736;52.068;6.968;2023-05-07T09:10:14;18.90;;;14.70;;
3443;SDS011;1736;52.068;6.968;2023-05-07T09:12:40;19.50;;;14.77;;
3443;SDS011;1736;52.068;6.968;2023-05-07T09:15:07;25.20;;;16.73;;
3443;SDS011;1736;52.068;6.968;2023-05-07T09:17:34;19.60;;;14.60;;
3443;SDS011;1736;52.068;6.968;2023-05-07T09:20:08;18.63;;;14.03;;
3443;SDS011;1736;52.068;6.968;2023-05-07T09:22:36;19.17;;;14.00;;
3443;SDS011;1736;52.068;6.968;2023-05-07T09:25:05;18.77;;;13.57;;
3443;SDS011;1736;52.068;6.968;2023-05-07T09:27:32;16.67;;;13.40;;
3443;SDS011;1736;52.068;6.968;2023-05-07T09:29:59;18.47;;;14.50;;
3443;SDS011;1736;52.068;6.968;2023-05-07T09:32:32;19.97;;;14.43;;
3443;SDS011;1736;52.068;6.968;2023-05-07T09:35:00;21.37;;;15.90;;
3443;SDS011;1736;52.068;6.968;2023-05-07T09:37:27;20.77;;;14.53;;
3443;SDS011;1736;52.068;6.968;2023-05-07T09:39:53;21.77;;;15.67;;
3443;SDS011;1736;52.068;6.968;2023-05-07T09:42:24;23.90;;;14.80;;
3443;SDS011;1736;52.068;6.968;2023-05-07T09:44:52;19.47;;;13.83;;
3443;SDS011;1736;52.068;6.968;2023-05-07T09:47:20;18.87;;;15.07;;
3443;SDS011;1736;52.068;6.968;2023-05-07T09:49:50;18.67;;;14.27;;
3443;SDS011;1736;52.068;6.968;2023-05-07T09:52:22;25.70;;;14.03;;
3443;SDS011;1736;52.068;6.968;2023-05-07T09:54:58;19.53;;;14.10;;
3443;SDS011;1736;52.068;6.968;2023-05-07T09:57:27;18.70;;;14.37;;
3443;SDS011;1736;52.068;6.968;2023-05-07T09:59:55;18.87;;;14.70;;
3443;SDS011;1736;52.068;6.968;2023-05-07T10:02:24;19.90;;;14.87;;
3443;SDS011;1736;52.068;6.968;2023-05-07T10:04:53;20.40;;;14.70;;
3443;SDS011;1736;52.068;6.968;2023-05-07T10:07:20;20.30;;;14.70;;
3443;SDS011;1736;52.068;6.968;2023-05-07T10:09:55;20.23;;;13.77;;
3443;SDS011;1736;52.068;6.968;2023-05-07T10:12:22;19.67;;;14.67;;
3443;SDS011;1736;52.068;6.968;2023-05-07T10:14:51;19.83;;;14.07;;
3443;SDS011;1736;52.068;6.968;2023-05-07T10:17:19;20.40;;;14.90;;
3443;SDS011;1736;52.068;6.968;2023-05-07T10:19:46;21.07;;;14.50;;
3443;SDS011;1736;52.068;6.968;2023-05-07T10:22:13;17.97;;;13.73;;
3443;SDS011;1736;52.068;6.968;2023-05-07T10:24:41;20.50;;;14.10;;
3443;SDS011;1736;52.068;6.968;2023-05-07T10:27:11;18.43;;;13.73;;
3443;SDS011;1736;52.068;6.968;2023-05-07T10:29:45;19.40;;;14.10;;
3443;SDS011;1736;52.068;6.968;2023-05-07T10:32:25;17.70;;;12.77;;
3443;SDS011;1736;52.068;6.968;2023-05-07T10:35:02;20.80;;;13.13;;
3443;SDS011;1736;52.068;6.968;2023-05-07T10:37:37;19.50;;;13.37;;
3443;SDS011;1736;52.068;6.968;2023-05-07T10:40:05;18.47;;;13.67;;
3443;SDS011;1736;52.068;6.968;2023-05-07T10:42:33;16.07;;;13.13;;
3443;SDS011;1736;52.068;6.968;2023-05-07T10:45:12;19.33;;;12.90;;
3443;SDS011;1736;52.068;6.968;2023-05-07T10:50:35;28.17;;;14.03;;
3443;SDS011;1736;52.068;6.968;2023-05-07T10:56:23;19.13;;;13.20;;
3443;SDS011;1736;52.068;6.968;2023-05-07T10:58:53;15.27;;;12.40;;
3443;SDS011;1736;52.068;6.968;2023-05-07T11:04:17;20.80;;;12.37;;
3443;SDS011;1736;52.068;6.968;2023-05-07T11:09:56;17.17;;;11.83;;
3443;SDS011;1736;52.068;6.968;2023-05-07T11:18:16;16.93;;;11.50;;
3443;SDS011;1736;52.068;6.968;2023-05-07T11:20:47;17.87;;;12.40;;
3443;SDS011;1736;52.068;6.968;2023-05-07T11:26:23;18.63;;;12.40;;
3443;SDS011;1736;52.068;6.968;2023-05-07T11:28:57;16.50;;;12.83;;
3443;SDS011;1736;52.068;6.968;2023-05-07T11:31:31;17.80;;;13.47;;
3443;SDS011;1736;52.068;6.968;2023-05-07T11:33:59;17.67;;;12.37;;
3443;SDS011;1736;52.068;6.968;2023-05-07T11:36:31;10.10;;;8.50;;
3443;SDS011;1736;52.068;6.968;2023-05-07T11:38:58;17.53;;;12.20;;
3443;SDS011;1736;52.068;6.968;2023-05-07T11:41:32;18.37;;;12.33;;
3443;SDS011;1736;52.068;6.968;2023-05-07T11:43:59;13.10;;;10.73;;
3443;SDS011;1736;52.068;6.968;2023-05-07T11:46:26;15.37;;;10.63;;
3443;SDS011;1736;52.068;6.968;2023-05-07T11:48:54;14.70;;;11.67;;
3443;SDS011;1736;52.068;6.968;2023-05-07T11:51:22;16.33;;;12.00;;
3443;SDS011;1736;52.068;6.968;2023-05-07T11:53:51;15.87;;;11.73;;
3443;SDS011;1736;52.068;6.968;2023-05-07T11:56:18;12.60;;;10.70;;
3443;SDS011;1736;52.068;6.968;2023-05-07T11:58:46;16.60;;;10.30;;
3443;SDS011;1736;52.068;6.968;2023-05-07T12:01:13;11.63;;;9.70;;
3443;SDS011;1736;52.068;6.968;2023-05-07T12:03:41;13.37;;;10.80;;
3443;SDS011;1736;52.068;6.968;2023-05-07T12:06:10;14.37;;;10.43;;
3443;SDS011;1736;52.068;6.968;2023-05-07T12:08:40;18.97;;;12.13;;
3443;SDS011;1736;52.068;6.968;2023-05-07T12:11:08;11.80;;;10.10;;
3443;SDS011;1736;52.068;6.968;2023-05-07T12:13:36;15.00;;;10.50;;
3443;SDS011;1736;52.068;6.968;2023-05-07T12:16:03;12.90;;;9.27;;
3443;SDS011;1736;52.068;6.968;2023-05-07T12:18:32;11.67;;;8.43;;
3443;SDS011;1736;52.068;6.968;2023-05-07T12:20:59;13.70;;;8.70;;
3443;SDS011;1736;52.068;6.968;2023-05-07T12:23:26;14.27;;;10.10;;
3443;SDS011;1736;52.068;6.968;2023-05-07T12:25:55;15.97;;;10.03;;
3443;SDS011;1736;52.068;6.968;2023-05-07T12:28:22;16.33;;;8.97;;
3443;SDS011;1736;52.068;6.968;2023-05-07T12:30:49;11.87;;;8.10;;
3443;SDS011;1736;52.068;6.968;2023-05-07T12:33:17;9.67;;;7.53;;
3443;SDS011;1736;52.068;6.968;2023-05-07T12:35:46;24.93;;;8.90;;
3443;SDS011;1736;52.068;6.968;2023-05-07T12:38:14;9.07;;;7.00;;
3443;SDS011;1736;52.068;6.968;2023-05-07T12:40:42;7.90;;;7.10;;
3443;SDS011;1736;52.068;6.968;2023-05-07T12:43:16;9.80;;;7.13;;
3443;SDS011;1736;52.068;6.968;2023-05-07T12:45:43;9.63;;;7.40;;
3443;SDS011;1736;52.068;6.968;2023-05-07T12:48:10;10.07;;;7.97;;
3443;SDS011;1736;52.068;6.968;2023-05-07T12:50:37;8.50;;;7.23;;
3443;SDS011;1736;52.068;6.968;2023-05-07T12:53:11;7.93;;;6.33;;
3443;SDS011;1736;52.068;6.968;2023-05-07T12:55:46;9.80;;;7.13;;
3443;SDS011;1736;52.068;6.968;2023-05-07T12:58:15;7.10;;;6.23;;
3443;SDS011;1736;52.068;6.968;2023-05-07T13:00:43;10.67;;;7.80;;
3443;SDS011;1736;52.068;6.968;2023-05-07T13:03:10;8.50;;;7.43;;
3443;SDS011;1736;52.068;6.968;2023-05-07T13:05:37;10.70;;;7.90;;
3443;SDS011;1736;52.068;6.968;2023-05-07T13:08:04;9.83;;;7.23;;
3443;SDS011;1736;52.068;6.968;2023-05-07T13:10:30;8.37;;;6.70;;
3443;SDS011;1736;52.068;6.968;2023-05-07T13:12:57;7.30;;;5.60;;
3443;SDS011;1736;52.068;6.968;2023-05-07T13:15:25;7.63;;;6.83;;
3443;SDS011;1736;52.068;6.968;2023-05-07T13:17:52;8.00;;;6.37;;
3443;SDS011;1736;52.068;6.968;2023-05-07T13:20:18;10.60;;;6.50;;
3443;SDS011;1736;52.068;6.968;2023-05-07T13:22:45;7.33;;;6.33;;
3443;SDS011;1736;52.068;6.968;2023-05-07T13:25:12;6.80;;;6.10;;
3443;SDS011;1736;52.068;6.968;2023-05-07T13:27:38;8.50;;;5.13;;
3443;SDS011;1736;52.068;6.968;2023-05-07T13:30:06;6.93;;;5.53;;
3443;SDS011;1736;52.068;6.968;2023-05-07T13:32:34;9.30;;;6.10;;
3443;SDS011;1736;52.068;6.968;2023-05-07T13:35:01;8.27;;;7.10;;
3443;SDS011;1736;52.068;6.968;2023-05-07T13:37:28;8.27;;;6.67;;
3443;SDS011;1736;52.068;6.968;2023-05-07T13:39:54;7.10;;;5.90;;
3443;SDS011;1736;52.068;6.968;2023-05-07T13:42:21;7.70;;;5.70;;
3443;SDS011;1736;52.068;6.968;2023-05-07T13:44:47;4.80;;;3.67;;
3443;SDS011;1736;52.068;6.968;2023-05-07T13:47:14;5.00;;;4.50;;
3443;SDS011;1736;52.068;6.968;2023-05-07T13:49:42;10.10;;;5.33;;
3443;SDS011;1736;52.068;6.968;2023-05-07T13:52:08;5.23;;;4.73;;
3443;SDS011;1736;52.068;6.968;2023-05-07T13:54:41;6.20;;;4.80;;
3443;SDS011;1736;52.068;6.968;2023-05-07T13:57:08;4.43;;;4.03;;
3443;SDS011;1736;52.068;6.968;2023-05-07T13:59:34;5.20;;;4.40;;
3443;SDS011;1736;52.068;6.968;2023-05-07T14:02:01;17.20;;;5.10;;
3443;SDS011;1736;52.068;6.968;2023-05-07T14:04:27;8.40;;;5.70;;
3443;SDS011;1736;52.068;6.968;2023-05-07T14:06:55;6.10;;;5.13;;
3443;SDS011;1736;52.068;6.968;2023-05-07T14:09:22;8.13;;;5.30;;
3443;SDS011;1736;52.068;6.968;2023-05-07T14:11:48;7.47;;;5.97;;
3443;SDS011;1736;52.068;6.968;2023-05-07T14:14:16;8.57;;;6.87;;
3443;SDS011;1736;52.068;6.968;2023-05-07T14:16:43;9.53;;;6.07;;
3443;SDS011;1736;52.068;6.968;2023-05-07T14:19:09;10.13;;;7.67;;
3443;SDS011;1736;52.068;6.968;2023-05-07T14:21:36;7.93;;;6.17;;
3443;SDS011;1736;52.068;6.968;2023-05-07T14:24:05;7.37;;;6.53;;
3443;SDS011;1736;52.068;6.968;2023-05-07T14:26:32;7.00;;;6.20;;
3443;SDS011;1736;52.068;6.968;2023-05-07T14:28:59;7.20;;;5.87;;
3443;SDS011;1736;52.068;6.968;2023-05-07T14:31:25;7.50;;;5.50;;
3443;SDS011;1736;52.068;6.968;2023-05-07T14:33:52;8.07;;;5.63;;
3443;SDS011;1736;52.068;6.968;2023-05-07T14:36:19;6.67;;;5.97;;
3443;SDS011;1736;52.068;6.968;2023-05-07T14:38:47;6.40;;;5.70;;
3443;SDS011;1736;52.068;6.968;2023-05-07T14:41:15;7.40;;;6.10;;
3443;SDS011;1736;52.068;6.968;2023-05-07T14:43:42;6.80;;;5.87;;
3443;SDS011;1736;52.068;6.968;2023-05-07T14:46:14;7.57;;;6.00;;
3443;SDS011;1736;52.068;6.968;2023-05-07T14:48:41;7.07;;;6.00;;
3443;SDS011;1736;52.068;6.968;2023-05-07T14:51:09;10.00;;;5.87;;
3443;SDS011;1736;52.068;6.968;2023-05-07T14:53:35;8.63;;;5.40;;
3443;SDS011;1736;52.068;6.968;2023-05-07T14:56:02;7.10;;;6.10;;
3443;SDS011;1736;52.068;6.968;2023-05-07T14:58:30;7.60;;;6.17;;
3443;SDS011;1736;52.068;6.968;2023-05-07T15:00:57;8.83;;;5.60;;
3443;SDS011;1736;52.068;6.968;2023-05-07T15:03:24;6.13;;;5.57;;
3443;SDS011;1736;52.068;6.968;2023-05-07T15:05:51;7.27;;;5.73;;
3443;SDS011;1736;52.068;6.968;2023-05-07T15:08:18;6.47;;;5.77;;
3443;SDS011;1736;52.068;6.968;2023-05-07T15:10:44;11.17;;;5.30;;
3443;SDS011;1736;52.068;6.968;2023-05-07T15:13:11;8.00;;;5.37;;
3443;SDS011;1736;52.068;6.968;2023-05-07T15:15:40;8.20;;;6.10;;